Metar Report
Metar
METAR KN23 210556Z AUTO 00000KT 5SM BR CLR 12/12 A2983 A02 27
METAR KN23 210456Z AUTO 00000KT 10SM CLR 12/12 A2984 A02 26
METAR KN23 210356Z AUTO 00000KT 10SM CLR 12/12 A2984 A02 25
METAR KN23 210256Z AUTO 00000KT 10SM CLR 13/13 A2984 A02 24
METAR KN23 210156Z AUTO 00000KT 10SM CLR 14/12 A2984 A02 23
METAR KN23 210056Z AUTO 00000KT 10SM CLR 16/13 A2983 A02 22
METAR KN23 202356Z AUTO 00000KT 10SM CLR 20/10 A2983 A02 21
METAR KN23 202256Z AUTO 00000KT 10SM CLR 20/10 A2983 A02 20
METAR KN23 202156Z AUTO 25003KT 10SM CLR 21/13 A2983 A02 19
METAR KN23 202056Z AUTO 30003KT 10SM CLR 23/13 A2985 A02 18
METAR KN23 201956Z AUTO 26003KT 10SM BKN120 23/14 A2986 A02 17
METAR KN23 201856Z AUTO 00000KT 10SM CLR 23/14 A2986 A02 16
METAR KN23 201756Z AUTO 24003KT 10SM CLR 23/12 A2987 A02 15
METAR KN23 201656Z AUTO 26005KT 10SM CLR 23/11 A2988 A02 14
METAR KN23 201556Z AUTO 00000KT 10SM CLR 23/13 A2990 A02 13
METAR KN23 201456Z AUTO 00000KT 10SM CLR 20/15 A2991 A02 12
METAR KN23 201356Z AUTO 00000KT 10SM CLR 17/14 A2993 A02 11
METAR KN23 201256Z AUTO 00000KT 10SM CLR 15/13 A2994 A02 10
METAR KN23 201156Z AUTO 00000KT 10SM CLR 13/13 A2997 A02 9
METAR KN23 201056Z AUTO 00000KT 10SM OVC004 13/13 A2996 A02 8
METAR KN23 200956Z AUTO 00000KT 10SM CLR 12/12 A2995 A02 7
METAR KN23 200856Z AUTO 00000KT 10SM CLR 12/12 A2994 A02 6
METAR KN23 200756Z AUTO 00000KT 10SM CLR 12/12 A2994 A02 5
METAR KN23 200656Z AUTO 00000KT 10SM CLR 13/13 A2994 A02 4
METAR KN23 200556Z AUTO 00000KT 10SM CLR 13/12 A2995 A02 3
METAR KN23 200456Z AUTO 00000KT 10SM CLR 14/13 A2996 A02 2
METAR KN23 200356Z AUTO 00000KT 10SM CLR 14/13 A2996 A02 1
METAR KN23 200256Z AUTO 00000KT 10SM CLR 16/12 A2997 A02 0
METAR KN23 200156Z AUTO 00000KT 10SM CLR 16/12 A2996 A02 69
METAR KN23 200056Z AUTO 06003KT 10SM CLR 18/12 A2994 A02 68
METAR KN23 192356Z AUTO 01003KT 10SM CLR 20/11 A2993 A02 67
METAR KN23 192256Z AUTO 01006KT 10SM CLR 23/12 A2992 A02 66
METAR KN23 192156Z AUTO 05005KT 10SM CLR 23/10 A2992 A02 65
METAR KN23 192056Z AUTO 36004KT 10SM CLR 24/11 A2992 A02 64
METAR KN23 191956Z AUTO 01007KT 10SM CLR 24/11 A2992 A02 63
METAR KN23 191856Z AUTO 02010G14KT 10SM CLR 24/11 A2992 A02 62
METAR KN23 191756Z AUTO 02008G16KT 10SM CLR 24/12 A2992 A02 61
METAR KN23 191656Z AUTO 01009G14KT 10SM CLR 24/12 A2992 A02 60
METAR KN23 191556Z AUTO 36009G16KT 10SM CLR 23/11 A2993 A02 59
METAR KN23 191456Z AUTO 01007KT 10SM SCT037 22/14 A2993 A02 58
METAR KN23 191356Z AUTO 02007KT 000V070 10SM CLR 20/14 A2994 A02 57
METAR KN23 191256Z AUTO 36005KT 10SM SCT021 BKN026 BKN031 18/15 A2993 A02 56
METAR KN23 191156Z AUTO 36006KT 10SM OVC023 19/17 A2992 A02 55
METAR KN23 191056Z AUTO 34003KT 10SM BKN026 18/17 A2991 A02 54
METAR KN23 190956Z AUTO 00000KT 10SM BKN016 BKN043 OVC070 20/20 A2987 A02 53
METAR KN23 190856Z AUTO 34006KT 7SM SCT016 BKN021 OVC029 20/19 A2983 A02 52
METAR KN23 190756Z AUTO 00000KT 10SM SCT024 SCT030 BKN090 21/21 A2981 A02 51
METAR KN23 190656Z AUTO 00000KT 10SM SCT019 BKN035 OVC048 22/22 A2981 A02 50
METAR KN23 190556Z AUTO 00000KT 5SM +RA BKN017 BKN023 OVC033 23/23 A2981 A02 49
METAR KN23 190456Z AUTO 00000KT 10SM OVC020 23/23 A2981 A02 48
METAR KN23 190356Z AUTO 00000KT 10SM SCT025 SCT041 BKN095 21/21 A2980 A02 47
METAR KN23 190256Z AUTO 35003KT 10SM SCT070 OVC090 22/22 A2981 A02 46
METAR KN23 190156Z AUTO 26004KT 10SM SCT080 SCT095 23/23 A2982 A02 P0040 45
METAR KN23 190056Z AUTO 00000KT 4SM BR SCT048 BKN050 BKN075 23/23 A2979 A02 44
METAR KN23 182356Z AUTO 00000KT 7SM CLR 23/23 A2983 A02 43
METAR KN23 182256Z AUTO 00000KT 10SM SCT110 24/24 A2982 A02 P0020 42
METAR KN23 182156Z AUTO 31016G20KT 10SM SCT045 SCT060 BKN070 29/21 A2983 A02 41
METAR KN23 182056Z AUTO 24004KT 10SM CLR 31/21 A2983 A02 40
METAR KN23 181956Z AUTO 27009KT 230V300 10SM SCT060 31/19 A2985 A02 39
METAR KN23 181856Z AUTO 25006KT 10SM SCT055 SCT070 31/18 A2986 A02 38
METAR KN23 181756Z AUTO 26008G16KT 220V300 10SM SCT050 SCT065 SCT090 33/20 A2989 A02 37
METAR KN23 181656Z AUTO 26009G14KT 10SM SCT048 SCT050 SCT100 31/20 A2992 A02 36
METAR KN23 181556Z AUTO 23004KT 10SM CLR 31/22 A2994 A02 35
METAR KN23 181456Z AUTO 24006KT 10SM CLR 28/21 A2995 A02 34
METAR KN23 181356Z AUTO 27005KT 10SM CLR 26/21 A2998 A02 33
METAR KN23 181256Z AUTO 30003KT 10SM SCT055 23/21 A2999 A02 32
METAR KN23 181156Z AUTO 00000KT 10SM CLR 20/20 A3001 A02 31
METAR KN23 181056Z AUTO 00000KT 5SM HZ CLR 16/MM A3001 A02 30
METAR KN23 180956Z AUTO 00000KT 3SM BR CLR 15/MM A3002 A02 29
METAR KN23 180856Z AUTO 00000KT 4SM HZ CLR 16/MM A3003 A02 28